createdAt,value
2022-10-03T00:01:53.427Z,13.52
2022-10-03T00:04:45.102Z,13.73
2022-10-03T00:07:21.293Z,13.63
2022-10-03T00:10:14.590Z,17.45
2022-10-03T00:12:52.758Z,13.23
2022-10-03T00:15:28.328Z,11.57
2022-10-03T00:18:24.199Z,11.52
2022-10-03T00:21:09.131Z,14.23
2022-10-03T00:24:11.300Z,14.57
2022-10-03T00:26:44.005Z,11.85
2022-10-03T00:29:29.174Z,14.32
2022-10-03T00:32:11.137Z,12.68
2022-10-03T00:34:43.649Z,13.02
2022-10-03T00:37:23.415Z,9.27
2022-10-03T00:39:58.014Z,10.02
2022-10-03T00:42:49.639Z,10.10
2022-10-03T00:45:31.308Z,14.52
2022-10-03T00:48:35.300Z,9.05
2022-10-03T00:51:16.889Z,12.57
2022-10-03T00:54:26.502Z,15.25
2022-10-03T00:57:28.062Z,13.82
2022-10-03T01:00:19.132Z,11.73
2022-10-03T01:03:05.062Z,8.73
2022-10-03T01:06:14.933Z,14.45
2022-10-03T01:08:59.480Z,11.90
2022-10-03T01:11:48.492Z,9.52
2022-10-03T01:14:41.154Z,9.80
2022-10-03T01:17:49.618Z,9.05
2022-10-03T01:20:28.426Z,9.35
2022-10-03T01:23:08.252Z,9.40
2022-10-03T01:25:53.377Z,14.02
2022-10-03T01:28:57.293Z,10.05
2022-10-03T01:31:39.007Z,11.68
2022-10-03T01:34:16.087Z,10.07
2022-10-03T01:37:17.422Z,9.75
2022-10-03T01:39:50.381Z,8.40
2022-10-03T01:42:35.800Z,8.55
2022-10-03T01:45:16.806Z,8.57
2022-10-03T01:47:51.366Z,13.45
2022-10-03T01:50:36.949Z,9.07
2022-10-03T01:55:48.015Z,9.00
2022-10-03T01:58:39.077Z,12.70
2022-10-03T02:01:14.201Z,8.18
2022-10-03T02:06:25.034Z,12.05
2022-10-03T02:09:00.793Z,12.07
2022-10-03T02:11:39.168Z,15.10
2022-10-03T02:14:39.529Z,11.18
2022-10-03T02:17:42.179Z,10.25
2022-10-03T02:20:25.596Z,12.05
2022-10-03T02:22:57.774Z,9.63
2022-10-03T02:25:27.345Z,9.70
2022-10-03T02:28:03.082Z,8.68
2022-10-03T02:30:59.291Z,11.68
2022-10-03T02:33:49.738Z,9.02
2022-10-03T02:36:59.585Z,14.35
2022-10-03T02:39:44.178Z,11.07
2022-10-03T02:42:42.915Z,12.88
2022-10-03T02:45:40.246Z,9.93
2022-10-03T02:48:32.400Z,11.82
2022-10-03T02:51:14.326Z,9.05
2022-10-03T02:53:51.151Z,11.85
2022-10-03T02:56:51.228Z,10.35
2022-10-03T02:59:45.689Z,10.27
2022-10-03T03:02:12.267Z,9.57
2022-10-03T03:05:16.402Z,9.48
2022-10-03T03:08:04.156Z,9.98
2022-10-03T03:10:59.466Z,11.88
2022-10-03T03:14:02.901Z,12.15
2022-10-03T03:16:54.101Z,11.50
2022-10-03T03:19:48.676Z,12.65
2022-10-03T03:22:33.213Z,12.57
2022-10-03T03:25:19.138Z,11.05
2022-10-03T03:28:16.820Z,12.43
2022-10-03T03:30:52.825Z,13.00
2022-10-03T03:33:31.633Z,11.65
2022-10-03T03:36:13.666Z,13.55
2022-10-03T03:39:17.353Z,15.23
2022-10-03T03:42:02.192Z,13.55
2022-10-03T03:44:56.537Z,11.95
2022-10-03T03:47:36.395Z,13.48
2022-10-03T03:50:32.021Z,11.75
2022-10-03T03:53:29.944Z,10.90
2022-10-03T03:56:08.503Z,11.32
2022-10-03T03:58:47.136Z,10.35
2022-10-03T04:01:43.459Z,12.02
2022-10-03T04:04:37.708Z,12.57
2022-10-03T04:07:26.233Z,13.65
2022-10-03T04:10:16.334Z,8.80
2022-10-03T04:13:18.949Z,12.27
2022-10-03T04:16:00.133Z,14.05
2022-10-03T04:18:57.539Z,15.30
2022-10-03T04:21:43.007Z,11.23
2022-10-03T04:27:16.340Z,12.15
2022-10-03T04:29:57.273Z,13.95
2022-10-03T04:33:01.350Z,13.32
2022-10-03T04:35:52.825Z,11.02
2022-10-03T04:38:57.275Z,11.68
2022-10-03T04:41:58.211Z,11.80
2022-10-03T04:44:56.961Z,11.90
2022-10-03T04:47:51.326Z,12.52
2022-10-03T04:50:40.223Z,11.45
2022-10-03T04:53:21.307Z,12.00
2022-10-03T04:55:54.211Z,13.50
2022-10-03T04:58:38.911Z,15.27
2022-10-03T05:01:20.425Z,12.63
2022-10-03T05:04:10.516Z,16.67
2022-10-03T05:07:02.435Z,14.23
2022-10-03T05:09:53.145Z,18.15
2022-10-03T05:12:41.099Z,14.75
2022-10-03T05:15:29.334Z,13.82
2022-10-03T05:18:24.648Z,14.00
2022-10-03T05:20:59.077Z,15.77
2022-10-03T05:23:40.685Z,16.55
2022-10-03T05:26:43.056Z,11.93
2022-10-03T05:29:27.596Z,14.40
2022-10-03T05:32:15.278Z,14.77
2022-10-03T05:34:50.650Z,13.05
2022-10-03T05:37:48.230Z,13.40
2022-10-03T05:40:21.203Z,12.23
2022-10-03T05:42:53.491Z,12.43
2022-10-03T05:45:25.986Z,17.38
2022-10-03T05:48:10.663Z,12.43
2022-10-03T05:50:41.861Z,15.95
2022-10-03T05:53:17.945Z,14.50
2022-10-03T05:56:05.767Z,15.25
2022-10-03T05:59:05.401Z,18.50
2022-10-03T06:01:53.450Z,13.93
2022-10-03T06:04:39.163Z,11.75
2022-10-03T06:07:28.413Z,17.38
2022-10-03T06:10:06.678Z,13.75
2022-10-03T06:12:56.657Z,19.60
2022-10-03T06:15:38.332Z,21.20
2022-10-03T06:18:51.578Z,12.68
2022-10-03T06:21:42.954Z,14.40
2022-10-03T06:24:46.989Z,16.92
2022-10-03T06:27:16.516Z,13.02
2022-10-03T06:29:58.597Z,10.73
2022-10-03T06:32:46.918Z,11.60
2022-10-03T06:35:43.459Z,9.52
2022-10-03T06:38:45.904Z,12.02
2022-10-03T06:41:33.189Z,14.20
2022-10-03T06:44:22.806Z,9.80
2022-10-03T06:47:28.127Z,12.40
2022-10-03T06:50:13.246Z,12.88
2022-10-03T06:53:01.531Z,11.65
2022-10-03T06:55:50.703Z,13.45
2022-10-03T06:58:36.145Z,10.13
2022-10-03T07:01:11.502Z,15.50
2022-10-03T07:03:56.677Z,12.50
2022-10-03T07:06:48.610Z,16.23
2022-10-03T07:09:36.963Z,13.10
2022-10-03T07:12:16.745Z,15.20
2022-10-03T07:15:13.363Z,13.50
2022-10-03T07:17:54.901Z,15.18
2022-10-03T07:20:59.230Z,14.75
2022-10-03T07:23:41.961Z,17.88
2022-10-03T07:26:43.824Z,16.45
2022-10-03T07:29:25.720Z,17.00
2022-10-03T07:32:13.239Z,16.15
2022-10-03T07:35:27.101Z,15.35
2022-10-03T07:38:46.797Z,16.42
2022-10-03T07:41:41.051Z,18.75
2022-10-03T07:44:33.647Z,20.90
2022-10-03T07:47:38.477Z,14.20
2022-10-03T07:50:49.672Z,19.90
2022-10-03T07:53:27.990Z,15.45
2022-10-03T07:56:04.899Z,21.75
2022-10-03T07:58:51.994Z,19.42
2022-10-03T08:01:40.204Z,17.00
2022-10-03T08:04:34.472Z,22.80
2022-10-03T08:07:32.715Z,26.35
2022-10-03T08:10:29.340Z,22.08
2022-10-03T08:13:34.786Z,20.45
2022-10-03T08:16:35.552Z,23.65
2022-10-03T08:19:18.467Z,24.80
2022-10-03T08:22:22.074Z,22.98
2022-10-03T08:25:25.890Z,23.10
2022-10-03T08:28:23.507Z,24.50
2022-10-03T08:31:08.065Z,29.02
2022-10-03T08:33:45.050Z,31.23
2022-10-03T08:36:54.566Z,29.90
2022-10-03T08:39:45.303Z,27.50
2022-10-03T08:42:48.026Z,29.95
2022-10-03T08:46:08.762Z,26.85
2022-10-03T08:48:44.328Z,25.65
2022-10-03T08:51:49.591Z,25.95
2022-10-03T08:54:39.033Z,21.58
2022-10-03T08:57:08.526Z,21.48
2022-10-03T09:00:19.851Z,24.65
2022-10-03T09:03:13.936Z,21.60
2022-10-03T09:05:49.043Z,28.40
2022-10-03T09:08:44.814Z,20.45
2022-10-03T09:11:42.644Z,23.83
2022-10-03T09:14:38.811Z,27.67
2022-10-03T09:17:23.257Z,24.38
2022-10-03T09:20:02.149Z,29.90
2022-10-03T09:22:59.927Z,24.98
2022-10-03T09:25:41.449Z,29.98
2022-10-03T09:28:40.841Z,22.58
2022-10-03T09:31:16.254Z,19.27
2022-10-03T09:34:00.307Z,24.38
2022-10-03T09:36:54.671Z,23.08
2022-10-03T09:39:33.830Z,85.00
2022-10-03T09:42:51.169Z,19.58
2022-10-03T09:45:42.182Z,18.02
2022-10-03T09:48:55.645Z,15.68
2022-10-03T09:51:59.740Z,18.77
2022-10-03T09:54:44.018Z,17.40
2022-10-03T09:57:45.889Z,14.38
2022-10-03T10:00:22.614Z,16.88
2022-10-03T10:03:02.277Z,15.27
2022-10-03T10:06:03.714Z,15.55
2022-10-03T10:09:08.131Z,15.63
2022-10-03T10:12:02.994Z,17.17
2022-10-03T10:14:53.942Z,13.82
2022-10-03T10:17:51.853Z,13.57
2022-10-03T10:20:28.466Z,12.57
2022-10-03T10:23:13.095Z,9.10
2022-10-03T10:26:00.666Z,9.73
2022-10-03T10:29:00.454Z,9.30
2022-10-03T10:32:04.929Z,8.07
2022-10-03T10:34:53.416Z,5.72
2022-10-03T10:37:35.582Z,7.03
2022-10-03T10:40:10.298Z,5.25
2022-10-03T10:43:01.245Z,8.85
2022-10-03T10:46:09.587Z,8.38
2022-10-03T10:48:48.500Z,8.43
2022-10-03T10:51:48.364Z,6.90
2022-10-03T10:54:39.482Z,7.03
2022-10-03T10:57:09.463Z,8.18
2022-10-03T11:00:15.064Z,5.13
2022-10-03T11:03:19.614Z,3.90
2022-10-03T11:06:23.942Z,3.38
2022-10-03T11:09:09.969Z,6.78
2022-10-03T11:11:55.243Z,5.63
2022-10-03T11:15:00.044Z,6.30
2022-10-03T11:17:26.747Z,5.03
2022-10-03T11:19:53.208Z,4.90
2022-10-03T11:22:37.548Z,5.30
2022-10-03T11:25:44.183Z,6.25
2022-10-03T11:28:48.700Z,3.63
2022-10-03T11:32:10.007Z,5.60
2022-10-03T11:35:08.022Z,6.25
2022-10-03T11:37:41.382Z,5.55
2022-10-03T11:40:34.882Z,5.75
2022-10-03T11:43:38.800Z,8.73
2022-10-03T11:46:34.383Z,6.95
2022-10-03T11:49:26.200Z,6.72
2022-10-03T11:52:10.834Z,6.25
2022-10-03T11:54:42.327Z,8.10
2022-10-03T11:57:17.184Z,6.53
2022-10-03T12:00:01.201Z,6.10
2022-10-03T12:02:30.898Z,6.60
2022-10-03T12:05:00.162Z,6.50
2022-10-03T12:08:22.782Z,5.15
2022-10-03T12:11:07.299Z,5.93
2022-10-03T12:13:45.910Z,5.70
2022-10-03T12:16:27.567Z,6.10
2022-10-03T12:19:17.526Z,6.90
2022-10-03T12:21:59.202Z,5.05
2022-10-03T12:24:34.492Z,4.18
2022-10-03T12:27:10.106Z,4.50
2022-10-03T12:29:39.948Z,5.45
2022-10-03T12:32:30.638Z,4.97
2022-10-03T12:35:10.998Z,7.47
2022-10-03T12:38:21.325Z,6.68
2022-10-03T12:41:22.749Z,4.45
2022-10-03T12:43:52.143Z,6.20
2022-10-03T12:46:51.022Z,2.70
2022-10-03T12:50:01.115Z,5.25
2022-10-03T12:52:39.339Z,4.07
2022-10-03T12:55:23.682Z,6.38
2022-10-03T12:58:25.285Z,4.55
2022-10-03T13:01:06.663Z,4.53
2022-10-03T13:03:57.510Z,3.08
2022-10-03T13:07:02.472Z,3.60
2022-10-03T13:09:30.567Z,4.32
2022-10-03T13:12:08.464Z,5.13
2022-10-03T13:15:00.024Z,2.55
2022-10-03T13:17:51.275Z,6.35
2022-10-03T13:20:39.228Z,4.90
2022-10-03T13:23:19.947Z,5.10
2022-10-03T13:26:07.530Z,5.45
2022-10-03T13:29:10.855Z,7.15
2022-10-03T13:31:53.891Z,7.15
2022-10-03T13:34:23.902Z,4.55
2022-10-03T13:37:04.855Z,3.50
2022-10-03T13:39:45.303Z,5.60
2022-10-03T13:42:28.490Z,6.45
2022-10-03T13:45:00.414Z,3.88
2022-10-03T13:47:31.034Z,4.85
2022-10-03T13:50:01.285Z,6.07
2022-10-03T13:52:37.126Z,5.47
2022-10-03T13:55:32.443Z,5.47
2022-10-03T13:58:26.058Z,7.50
2022-10-03T14:01:11.406Z,5.22
2022-10-03T14:04:05.540Z,7.53
2022-10-03T14:06:57.433Z,5.85
2022-10-03T14:09:39.146Z,9.55
2022-10-03T14:12:51.214Z,6.05
2022-10-03T14:15:44.195Z,6.82
2022-10-03T14:18:23.247Z,5.07
2022-10-03T14:21:08.734Z,4.00
2022-10-03T14:23:47.990Z,5.75
2022-10-03T14:26:37.834Z,6.22
2022-10-03T14:29:28.088Z,6.20
2022-10-03T14:32:46.080Z,4.75
2022-10-03T14:35:29.027Z,6.05
2022-10-03T14:39:01.836Z,4.30
2022-10-03T14:41:45.594Z,4.25
2022-10-03T14:44:23.750Z,5.80
2022-10-03T14:47:07.305Z,9.07
2022-10-03T14:49:57.842Z,4.22
2022-10-03T14:52:44.631Z,6.13
2022-10-03T14:55:31.656Z,4.80
2022-10-03T14:58:13.065Z,5.20
2022-10-03T15:00:55.197Z,4.43
2022-10-03T15:03:30.439Z,5.97
2022-10-03T15:05:57.066Z,6.07
2022-10-03T15:08:29.609Z,4.65
2022-10-03T15:10:56.914Z,5.00
2022-10-03T15:13:24.968Z,5.90
2022-10-03T15:15:55.627Z,6.13
2022-10-03T15:18:24.387Z,6.00
2022-10-03T15:20:54.881Z,6.20
2022-10-03T15:23:30.544Z,5.68
2022-10-03T15:25:58.453Z,4.93
2022-10-03T15:28:29.185Z,6.80
2022-10-03T15:31:07.083Z,6.72
2022-10-03T15:33:36.841Z,9.43
2022-10-03T15:36:24.542Z,4.32
2022-10-03T15:39:00.890Z,6.35
2022-10-03T15:41:28.022Z,5.75
2022-10-03T15:43:57.494Z,7.82
2022-10-03T15:46:31.926Z,7.32
2022-10-03T15:49:13.780Z,6.88
2022-10-03T15:51:40.619Z,5.00
2022-10-03T15:54:11.686Z,11.30
2022-10-03T15:56:42.162Z,9.38
2022-10-03T15:59:18.018Z,9.10
2022-10-03T16:01:47.632Z,7.28
2022-10-03T16:04:22.899Z,8.65
2022-10-03T16:09:21.997Z,7.22
2022-10-03T16:12:24.621Z,7.15
2022-10-03T16:15:17.280Z,10.77
2022-10-03T16:17:49.986Z,8.73
2022-10-03T16:20:22.316Z,7.72
2022-10-03T16:22:53.166Z,10.70
2022-10-03T16:25:22.252Z,8.40
2022-10-03T16:27:57.355Z,5.93
2022-10-03T16:33:18.007Z,6.80
2022-10-03T16:35:54.137Z,7.13
2022-10-03T16:38:47.870Z,11.07
2022-10-03T16:41:25.571Z,9.90
2022-10-03T16:44:00.655Z,7.40
2022-10-03T16:46:34.977Z,8.18
2022-10-03T16:49:27.769Z,10.23
2022-10-03T16:52:21.718Z,10.52
2022-10-03T16:54:57.128Z,8.95
2022-10-03T16:57:43.879Z,9.55
2022-10-03T17:00:17.378Z,9.80
2022-10-03T17:02:45.088Z,12.32
2022-10-03T17:05:14.098Z,14.43
2022-10-03T17:07:43.952Z,12.23
2022-10-03T17:10:22.263Z,15.40
2022-10-03T17:12:53.257Z,17.95
2022-10-03T17:15:23.407Z,15.68
2022-10-03T17:18:25.269Z,15.80
2022-10-03T17:21:00.605Z,12.82
2022-10-03T17:23:37.095Z,15.10
2022-10-03T17:26:16.814Z,12.52
2022-10-03T17:28:54.451Z,10.18
2022-10-03T17:31:29.803Z,11.40
2022-10-03T17:34:01.930Z,12.02
2022-10-03T17:36:56.270Z,13.18
2022-10-03T17:40:11.031Z,9.45
2022-10-03T17:42:46.365Z,9.98
2022-10-03T17:45:54.224Z,12.57
2022-10-03T17:49:18.681Z,13.35
2022-10-03T17:51:48.078Z,9.60
2022-10-03T17:54:30.100Z,13.95
2022-10-03T17:57:18.514Z,11.25
2022-10-03T17:59:52.373Z,10.77
2022-10-03T18:02:36.903Z,10.68
2022-10-03T18:05:19.401Z,14.75
2022-10-03T18:07:48.790Z,11.55
2022-10-03T18:10:34.147Z,9.75
2022-10-03T18:13:03.721Z,10.35
2022-10-03T18:15:52.065Z,12.98
2022-10-03T18:18:35.232Z,14.90
2022-10-03T18:21:15.324Z,11.90
2022-10-03T18:24:01.865Z,12.57
2022-10-03T18:26:37.140Z,12.25
2022-10-03T18:29:31.516Z,9.95
2022-10-03T18:32:18.856Z,14.20
2022-10-03T18:35:12.726Z,14.88
2022-10-03T18:37:45.276Z,16.02
2022-10-03T18:40:44.752Z,13.48
2022-10-03T18:43:24.131Z,12.93
2022-10-03T18:45:56.899Z,16.38
2022-10-03T18:48:34.968Z,15.70
2022-10-03T18:51:15.574Z,13.40
2022-10-03T18:53:47.986Z,13.75
2022-10-03T18:56:25.081Z,15.43
2022-10-03T18:59:15.691Z,14.73
2022-10-03T19:01:56.721Z,17.48
2022-10-03T19:04:39.633Z,21.98
2022-10-03T19:07:19.989Z,18.25
2022-10-03T19:10:25.864Z,17.30
2022-10-03T19:13:01.476Z,16.60
2022-10-03T19:15:55.602Z,26.90
2022-10-03T19:18:29.470Z,21.75
2022-10-03T19:21:04.366Z,24.48
2022-10-03T19:23:34.057Z,19.98
2022-10-03T19:26:08.502Z,20.50
2022-10-03T19:28:43.956Z,17.48
2022-10-03T19:31:24.638Z,18.65
2022-10-03T19:34:00.899Z,17.33
2022-10-03T19:36:31.390Z,14.38
2022-10-03T19:38:59.553Z,14.85
2022-10-03T19:41:28.697Z,17.58
2022-10-03T19:43:56.950Z,15.25
2022-10-03T19:46:57.875Z,16.80
2022-10-03T19:49:44.637Z,15.90
2022-10-03T19:52:17.394Z,18.70
2022-10-03T19:55:22.138Z,17.33
2022-10-03T19:57:59.297Z,16.17
2022-10-03T20:00:37.444Z,13.57
2022-10-03T20:03:08.634Z,17.25
2022-10-03T20:06:06.711Z,18.42
2022-10-03T20:08:48.808Z,17.67
2022-10-03T20:11:25.567Z,17.35
2022-10-03T20:13:54.031Z,20.75
2022-10-03T20:16:29.831Z,18.42
2022-10-03T20:19:05.514Z,18.13
2022-10-03T20:21:33.349Z,17.40
2022-10-03T20:24:01.222Z,19.60
2022-10-03T20:26:39.394Z,19.45
2022-10-03T20:29:24.474Z,21.77
2022-10-03T20:31:51.871Z,21.23
2022-10-03T20:34:23.105Z,19.52
2022-10-03T20:37:00.737Z,22.70
2022-10-03T20:39:37.764Z,18.33
2022-10-03T20:42:25.853Z,22.10
2022-10-03T20:44:56.646Z,21.08
2022-10-03T20:47:45.235Z,23.10
2022-10-03T20:50:36.066Z,24.95
2022-10-03T20:53:10.991Z,18.83
2022-10-03T20:56:08.547Z,22.48
2022-10-03T20:58:48.004Z,19.58
2022-10-03T21:01:22.245Z,19.27
2022-10-03T21:04:14.379Z,18.17
2022-10-03T21:07:16.277Z,22.25
2022-10-03T21:10:02.134Z,21.30
2022-10-03T21:12:40.707Z,22.00
2022-10-03T21:15:16.960Z,16.52
2022-10-03T21:17:45.312Z,23.75
2022-10-03T21:20:26.318Z,20.55
2022-10-03T21:22:57.067Z,20.80
2022-10-03T21:25:34.894Z,23.20
2022-10-03T21:28:04.298Z,25.45
2022-10-03T21:30:53.356Z,21.83
2022-10-03T21:33:30.053Z,21.75
2022-10-03T21:36:12.421Z,19.30
2022-10-03T21:38:43.122Z,19.83
2022-10-03T21:41:34.727Z,20.38
2022-10-03T21:44:12.292Z,25.05
2022-10-03T21:46:51.219Z,21.42
2022-10-03T21:49:35.463Z,22.30
2022-10-03T21:52:22.376Z,19.38
2022-10-03T21:55:50.802Z,19.15
2022-10-03T21:58:43.970Z,20.67
2022-10-03T22:01:25.073Z,19.20
2022-10-03T22:04:03.768Z,17.20
2022-10-03T22:06:42.562Z,17.40
2022-10-03T22:09:14.857Z,22.02
2022-10-03T22:11:53.301Z,21.92
2022-10-03T22:14:44.371Z,19.75
2022-10-03T22:17:13.927Z,25.65
2022-10-03T22:19:59.061Z,16.10
2022-10-03T22:22:50.262Z,18.23
2022-10-03T22:25:47.737Z,19.17
2022-10-03T22:28:37.838Z,24.85
2022-10-03T22:31:37.081Z,18.00
2022-10-03T22:34:34.430Z,19.83
2022-10-03T22:37:01.704Z,21.45
2022-10-03T22:39:28.969Z,20.27
2022-10-03T22:41:59.234Z,15.75
2022-10-03T22:44:30.495Z,19.23
2022-10-03T22:47:03.146Z,19.83
2022-10-03T22:49:38.146Z,17.40
2022-10-03T22:52:07.105Z,20.35
2022-10-03T22:54:37.581Z,14.23
2022-10-03T22:57:10.025Z,17.02
2022-10-03T22:59:46.773Z,16.77
2022-10-03T23:02:15.245Z,15.13
2022-10-03T23:04:52.384Z,19.02
2022-10-03T23:07:29.340Z,15.68
2022-10-03T23:10:07.025Z,18.35
2022-10-03T23:12:43.389Z,17.95
2022-10-03T23:15:14.733Z,17.65
2022-10-03T23:18:03.150Z,17.92
2022-10-03T23:20:47.685Z,21.80
2022-10-03T23:23:23.238Z,17.67
2022-10-03T23:25:59.925Z,19.00
2022-10-03T23:28:38.387Z,18.45
2022-10-03T23:31:05.339Z,17.65
2022-10-03T23:33:34.647Z,16.40
2022-10-03T23:36:14.805Z,16.65
2022-10-03T23:38:41.397Z,20.10
2022-10-03T23:41:29.669Z,18.13
2022-10-03T23:43:57.445Z,17.75
2022-10-03T23:46:30.796Z,18.00
2022-10-03T23:49:00.130Z,15.20
2022-10-03T23:51:34.622Z,18.38
2022-10-03T23:54:04.891Z,14.10
2022-10-03T23:56:38.080Z,15.50
2022-10-03T23:59:05.028Z,15.45
